Time;durP1;ratioP1;P1;durP2;ratioP2;P2;SDS_P1;SDS_P2;PMS_P1;PMS_P2;Temp;Humidity;BMP_temperature;BMP_pressure;BME280_temperature;BME280_humidity;BME280_pressure;Samples;Min_cycle;Max_cycle;Signal;HPM_P1;HPM_P2
2022/03/29 00:01:58;;;;;;;60.95;25.90;;;9.10;99.90;;;;;;5083981;28;20597;-78
2022/03/29 00:04:24;;;;;;;51.15;25.00;;;9.00;99.90;;;;;;5066534;28;20032;-76
2022/03/29 00:06:50;;;;;;;52.15;23.98;;;9.00;99.90;;;;;;5083450;28;20021;-75
2022/03/29 00:09:17;;;;;;;49.47;24.67;;;9.10;99.90;;;;;;5082493;28;20031;-75
2022/03/29 00:11:43;;;;;;;49.53;24.17;;;9.00;99.90;;;;;;5084358;28;20400;-74
2022/03/29 00:14:09;;;;;;;47.13;24.90;;;9.00;99.90;;;;;;5082778;28;20040;-75
2022/03/29 00:16:35;;;;;;;57.83;25.67;;;9.00;99.90;;;;;;5082610;28;20817;-76
2022/03/29 00:19:02;;;;;;;55.72;26.45;;;9.10;99.90;;;;;;5083942;28;20078;-74
2022/03/29 00:21:28;;;;;;;73.38;32.25;;;9.10;99.90;;;;;;5082896;28;20121;-78
2022/03/29 00:23:53;;;;;;;78.47;34.15;;;9.10;99.90;;;;;;5082664;28;20111;-75
2022/03/29 00:26:19;;;;;;;70.60;31.65;;;9.10;99.90;;;;;;5065926;28;20020;-75
2022/03/29 00:28:47;;;;;;;74.57;33.03;;;9.10;99.90;;;;;;5082174;28;20028;-75
2022/03/29 00:31:16;;;;;;;68.20;33.10;;;9.00;99.90;;;;;;5060865;28;20036;-73
2022/03/29 00:33:42;;;;;;;66.28;30.83;;;9.00;99.90;;;;;;5063811;28;20528;-75
2022/03/29 00:36:09;;;;;;;64.32;29.85;;;9.00;99.90;;;;;;5062245;28;20556;-75
2022/03/29 00:38:35;;;;;;;59.35;29.20;;;8.90;99.90;;;;;;5062100;28;20112;-75
2022/03/29 00:41:02;;;;;;;57.80;27.95;;;8.90;99.90;;;;;;5063707;28;20020;-75
2022/03/29 00:43:28;;;;;;;55.95;23.55;;;9.00;99.90;;;;;;5061908;28;20046;-75
2022/03/29 00:45:53;;;;;;;41.05;19.95;;;9.00;99.90;;;;;;5062323;28;20474;-75
2022/03/29 00:48:19;;;;;;;38.50;18.52;;;8.90;99.90;;;;;;5063228;28;20027;-75
2022/03/29 00:50:45;;;;;;;43.60;20.02;;;8.80;99.90;;;;;;5060412;28;20021;-76
2022/03/29 00:53:12;;;;;;;36.58;18.17;;;8.80;99.90;;;;;;5062636;28;20088;-74
2022/03/29 00:55:38;;;;;;;43.55;20.45;;;8.70;99.90;;;;;;5063351;28;20035;-75
2022/03/29 00:58:07;;;;;;;37.70;19.15;;;8.60;99.90;;;;;;5061285;28;20060;-75
2022/03/29 01:00:35;;;;;;;50.28;22.92;;;8.60;99.90;;;;;;5062033;28;20017;-77
2022/03/29 01:03:03;;;;;;;67.35;28.38;;;8.60;99.90;;;;;;5062156;28;20421;-76
2022/03/29 01:05:29;;;;;;;70.60;31.23;;;8.50;99.90;;;;;;5061624;28;20029;-76
2022/03/29 01:08:00;;;;;;;67.57;31.25;;;8.50;99.90;;;;;;5061562;28;20028;-77
2022/03/29 01:10:26;;;;;;;73.32;34.13;;;8.40;99.90;;;;;;5061767;28;20025;-78
2022/03/29 01:12:54;;;;;;;75.82;33.53;;;8.40;99.90;;;;;;5061823;28;20074;-75
2022/03/29 01:15:22;;;;;;;69.55;33.22;;;8.40;99.90;;;;;;5063113;28;20422;-76
2022/03/29 01:17:50;;;;;;;80.20;33.80;;;8.40;99.90;;;;;;5061859;28;20048;-74
2022/03/29 01:20:24;;;;;;;65.07;29.77;;;8.30;99.90;;;;;;5061257;28;20074;-77
2022/03/29 01:22:52;;;;;;;67.60;30.48;;;8.30;99.90;;;;;;5062066;28;20048;-77
2022/03/29 01:25:20;;;;;;;69.43;33.88;;;8.30;99.90;;;;;;5061120;28;20040;-75
2022/03/29 01:27:48;;;;;;;72.03;35.58;;;8.40;99.90;;;;;;5061818;28;20028;-77
2022/03/29 01:30:15;;;;;;;76.60;32.05;;;8.30;99.90;;;;;;5071503;28;20040;-75
2022/03/29 01:32:44;;;;;;;88.32;37.95;;;8.30;99.90;;;;;;5083089;28;20107;-76
2022/03/29 01:35:11;;;;;;;85.50;37.60;;;8.30;99.90;;;;;;5081940;28;20459;-76
2022/03/29 01:37:37;;;;;;;134.77;55.42;;;8.30;99.90;;;;;;5081566;28;20057;-74
2022/03/29 01:40:23;;;;;;;179.88;68.45;;;8.20;99.90;;;;;;5083056;28;20469;-73
2022/03/29 01:42:52;;;;;;;192.25;73.20;;;8.20;99.90;;;;;;5081883;28;20067;-75
2022/03/29 01:45:19;;;;;;;183.27;72.00;;;8.20;99.90;;;;;;5081301;28;20096;-76
2022/03/29 01:47:45;;;;;;;165.32;66.43;;;8.20;99.90;;;;;;5081424;28;20021;-76
2022/03/29 01:50:12;;;;;;;174.23;70.18;;;8.10;99.90;;;;;;5082113;28;20481;-76
2022/03/29 01:52:40;;;;;;;164.63;63.45;;;8.10;99.90;;;;;;5078499;28;20021;-76
2022/03/29 01:55:09;;;;;;;77.97;36.83;;;8.10;99.90;;;;;;5073081;28;20107;-74
2022/03/29 01:57:36;;;;;;;67.90;33.67;;;8.00;99.90;;;;;;5072954;28;20490;-77
2022/03/29 02:02:51;;;;;;;69.95;32.08;;;8.00;99.90;;;;;;5073378;28;20383;-74
2022/03/29 02:05:21;;;;;;;67.85;32.45;;;8.00;99.90;;;;;;5073511;28;20025;-74
2022/03/29 02:07:46;;;;;;;66.30;32.83;;;8.00;99.90;;;;;;5072755;28;20035;-73
2022/03/29 02:10:20;;;;;;;74.43;34.00;;;7.90;99.90;;;;;;5072998;28;20028;-74
2022/03/29 02:12:47;;;;;;;73.25;34.75;;;7.90;99.90;;;;;;5076346;28;20029;-77
2022/03/29 02:15:13;;;;;;;76.55;35.50;;;7.90;99.90;;;;;;5076204;28;20031;-75
2022/03/29 02:17:40;;;;;;;82.97;37.28;;;7.90;99.90;;;;;;5076507;28;20475;-75
2022/03/29 02:20:06;;;;;;;84.95;36.85;;;7.80;99.90;;;;;;5076842;28;20021;-75
2022/03/29 02:22:33;;;;;;;92.72;40.40;;;7.80;99.90;;;;;;5058399;28;20028;-76
2022/03/29 02:24:59;;;;;;;75.03;35.20;;;7.80;99.90;;;;;;5076195;28;20391;-75
2022/03/29 02:27:24;;;;;;;78.22;36.20;;;7.70;99.90;;;;;;5076755;28;20036;-76
2022/03/29 02:29:50;;;;;;;73.97;34.00;;;7.60;99.90;;;;;;5076178;28;20049;-75
2022/03/29 02:32:16;;;;;;;77.55;33.83;;;7.60;99.90;;;;;;5076649;28;20024;-74
2022/03/29 02:34:42;;;;;;;68.10;29.95;;;7.50;99.90;;;;;;5076249;28;20487;-75
2022/03/29 02:37:08;;;;;;;65.00;30.33;;;7.50;99.90;;;;;;5076081;28;20043;-76
2022/03/29 02:39:34;;;;;;;62.78;27.77;;;7.50;99.90;;;;;;5076700;28;20111;-74
2022/03/29 02:41:59;;;;;;;68.90;29.25;;;7.50;99.90;;;;;;5076129;28;20040;-75
2022/03/29 02:44:25;;;;;;;62.38;27.52;;;7.50;99.90;;;;;;5076251;28;20057;-77
2022/03/29 02:46:51;;;;;;;56.88;27.48;;;7.40;99.90;;;;;;5076355;28;20032;-77
2022/03/29 02:49:17;;;;;;;62.28;28.55;;;7.40;99.90;;;;;;5076128;28;20464;-75
2022/03/29 02:51:43;;;;;;;63.40;27.85;;;7.40;99.90;;;;;;5076275;28;20036;-74
2022/03/29 02:54:08;;;;;;;58.58;28.17;;;7.30;99.90;;;;;;5076339;28;20082;-76
2022/03/29 02:56:35;;;;;;;60.55;27.25;;;7.40;99.90;;;;;;5058044;28;20048;-74
2022/03/29 02:59:01;;;;;;;64.43;28.63;;;7.30;99.90;;;;;;5058254;28;20025;-76
2022/03/29 03:01:29;;;;;;;67.07;28.50;;;7.40;99.90;;;;;;5076068;28;20051;-74
2022/03/29 03:03:56;;;;;;;66.22;28.30;;;7.30;99.90;;;;;;5075874;28;20071;-74
2022/03/29 03:06:22;;;;;;;66.60;30.20;;;7.40;99.90;;;;;;5076196;28;20032;-75
2022/03/29 03:08:48;;;;;;;66.50;29.77;;;7.40;99.90;;;;;;5075723;28;20102;-74
2022/03/29 03:11:14;;;;;;;70.68;31.83;;;7.40;99.90;;;;;;5075975;28;20104;-76
2022/03/29 03:13:39;;;;;;;71.38;32.83;;;7.40;99.90;;;;;;5075856;28;20017;-76
2022/03/29 03:16:05;;;;;;;82.95;33.08;;;7.40;99.90;;;;;;5075667;28;20371;-77
2022/03/29 03:18:32;;;;;;;88.60;33.58;;;7.40;99.90;;;;;;5075579;28;20356;-74
2022/03/29 03:20:58;;;;;;;71.72;33.00;;;7.40;99.90;;;;;;5057645;28;20049;-75
2022/03/29 03:23:24;;;;;;;78.75;33.55;;;7.40;99.90;;;;;;5074171;28;20468;-73
2022/03/29 03:25:51;;;;;;;86.00;33.28;;;7.40;99.90;;;;;;5075388;28;20040;-75
2022/03/29 03:28:17;;;;;;;110.30;40.83;;;7.50;99.90;;;;;;5075209;28;20032;-76
2022/03/29 03:30:42;;;;;;;123.20;48.25;;;7.50;99.90;;;;;;5074985;28;20134;-74
2022/03/29 03:33:08;;;;;;;170.07;60.38;;;7.50;99.90;;;;;;5075011;28;20062;-76
2022/03/29 03:35:34;;;;;;;171.23;64.95;;;7.50;99.90;;;;;;5074976;28;20025;-74
2022/03/29 03:38:00;;;;;;;165.25;60.40;;;7.50;99.90;;;;;;5075164;28;20121;-75
2022/03/29 03:40:26;;;;;;;140.15;54.42;;;7.50;99.90;;;;;;5074987;28;20095;-77
2022/03/29 03:42:51;;;;;;;147.60;55.58;;;7.50;99.90;;;;;;5075198;28;20021;-74
2022/03/29 03:45:17;;;;;;;131.00;51.33;;;7.50;99.90;;;;;;5057075;28;20035;-75
2022/03/29 03:47:43;;;;;;;133.68;47.90;;;7.50;99.90;;;;;;5075261;28;20034;-75
2022/03/29 03:50:09;;;;;;;125.22;47.38;;;7.50;99.90;;;;;;5075059;28;20085;-74
2022/03/29 03:52:35;;;;;;;106.95;41.47;;;7.50;99.90;;;;;;5074937;28;20523;-76
2022/03/29 03:55:01;;;;;;;100.68;40.60;;;7.50;99.90;;;;;;5074695;28;20108;-75
2022/03/29 03:57:27;;;;;;;101.78;41.42;;;7.50;99.90;;;;;;5074943;28;20057;-77
2022/03/29 03:59:55;;;;;;;90.97;37.85;;;7.50;99.90;;;;;;5075023;28;20033;-75
2022/03/29 04:02:22;;;;;;;82.80;35.10;;;7.50;99.90;;;;;;5074827;28;20016;-76
2022/03/29 04:04:48;;;;;;;81.32;35.30;;;7.50;99.90;;;;;;5074907;28;20078;-76
2022/03/29 04:07:14;;;;;;;87.40;34.90;;;7.50;99.90;;;;;;5074428;28;20033;-75
2022/03/29 04:09:40;;;;;;;87.20;37.78;;;7.50;99.90;;;;;;5074306;28;20028;-76
2022/03/29 04:12:07;;;;;;;83.38;36.28;;;7.50;99.90;;;;;;5074704;28;20070;-76
2022/03/29 04:14:33;;;;;;;88.13;38.78;;;7.50;99.90;;;;;;5074130;28;20024;-75
2022/03/29 04:16:59;;;;;;;95.38;42.15;;;7.50;99.90;;;;;;5074427;28;20033;-74
2022/03/29 04:19:25;;;;;;;98.15;40.95;;;7.50;99.90;;;;;;5074591;28;20029;-73
2022/03/29 04:21:50;;;;;;;93.07;41.42;;;7.50;99.90;;;;;;5073989;28;20081;-76
2022/03/29 04:24:16;;;;;;;84.65;39.03;;;7.50;99.90;;;;;;5074213;28;20036;-75
2022/03/29 04:26:42;;;;;;;85.10;37.75;;;7.50;99.90;;;;;;5074421;28;20025;-76
2022/03/29 04:29:08;;;;;;;80.72;35.10;;;7.50;99.90;;;;;;5073902;28;20028;-74
2022/03/29 04:31:34;;;;;;;79.18;32.63;;;7.40;99.90;;;;;;5074316;28;20369;-75
2022/03/29 04:34:00;;;;;;;94.20;31.25;;;7.40;99.90;;;;;;5074153;28;20455;-73
2022/03/29 04:36:27;;;;;;;88.22;35.00;;;7.40;99.90;;;;;;5074089;28;20036;-73
2022/03/29 04:38:53;;;;;;;100.90;38.90;;;7.30;99.90;;;;;;5073868;28;20502;-75
2022/03/29 04:41:20;;;;;;;90.68;36.33;;;7.30;99.90;;;;;;5073999;28;20055;-76
2022/03/29 04:43:46;;;;;;;92.15;37.20;;;7.30;99.90;;;;;;5074174;28;20107;-75
2022/03/29 04:46:12;;;;;;;97.43;37.88;;;7.20;99.90;;;;;;5074084;28;20431;-73
2022/03/29 04:48:37;;;;;;;79.90;34.95;;;7.20;99.90;;;;;;5074082;28;20024;-73
2022/03/29 04:51:03;;;;;;;101.07;40.28;;;7.20;99.90;;;;;;5074033;28;20021;-74
2022/03/29 04:53:29;;;;;;;99.25;44.75;;;7.20;99.90;;;;;;5074162;28;20459;-73
2022/03/29 04:55:56;;;;;;;109.03;42.22;;;7.20;99.90;;;;;;5073351;28;20032;-74
2022/03/29 04:58:22;;;;;;;92.60;41.50;;;7.20;99.90;;;;;;5073577;28;20459;-75
2022/03/29 05:00:48;;;;;;;97.28;42.00;;;7.20;99.90;;;;;;5073923;28;20103;-74
2022/03/29 05:03:14;;;;;;;98.38;41.20;;;7.20;99.90;;;;;;5073604;28;20099;-74
2022/03/29 05:05:39;;;;;;;89.15;38.28;;;7.20;99.90;;;;;;5073821;28;20029;-75
2022/03/29 05:08:05;;;;;;;101.63;39.45;;;7.30;99.90;;;;;;5073603;28;20060;-74
2022/03/29 05:10:32;;;;;;;103.80;38.78;;;7.30;99.90;;;;;;5072212;28;20021;-72
2022/03/29 05:12:57;;;;;;;88.80;41.10;;;7.40;99.90;;;;;;5073427;28;20379;-73
2022/03/29 05:15:23;;;;;;;93.03;41.08;;;7.40;99.90;;;;;;5074158;28;20029;-72
2022/03/29 05:17:49;;;;;;;101.07;43.10;;;7.40;99.90;;;;;;5072002;28;20367;-74
2022/03/29 05:20:16;;;;;;;114.57;46.50;;;7.60;99.90;;;;;;5053840;28;20091;-74
2022/03/29 05:22:55;;;;;;;104.90;49.17;;;7.60;99.90;;;;;;5073116;28;20399;-76
2022/03/29 05:25:22;;;;;;;114.22;46.45;;;7.70;99.90;;;;;;5073128;28;20108;-75
2022/03/29 05:27:49;;;;;;;89.88;44.30;;;7.80;99.90;;;;;;5073600;28;20028;-72
2022/03/29 05:30:15;;;;;;;89.32;41.75;;;7.80;99.90;;;;;;5073262;28;20375;-77
2022/03/29 05:32:42;;;;;;;109.53;44.65;;;7.90;99.90;;;;;;5073526;28;20490;-75
2022/03/29 05:35:10;;;;;;;100.05;42.53;;;8.00;99.90;;;;;;5073416;28;20059;-75
2022/03/29 05:37:36;;;;;;;104.80;42.97;;;8.10;99.90;;;;;;5055446;28;20036;-75
2022/03/29 05:40:04;;;;;;;118.28;48.88;;;8.10;99.90;;;;;;5073532;28;20055;-73
2022/03/29 05:42:30;;;;;;;118.30;48.97;;;8.20;99.90;;;;;;5073301;28;20113;-74
2022/03/29 05:44:56;;;;;;;123.28;51.30;;;8.30;99.90;;;;;;5073318;28;20062;-74
2022/03/29 05:50:07;;;;;;;149.30;65.70;;;8.40;99.90;;;;;;5077303;28;20032;-75
2022/03/29 05:52:33;;;;;;;141.05;61.25;;;8.60;99.90;;;;;;5077341;28;20078;-74
2022/03/29 05:54:58;;;;;;;138.52;61.63;;;8.70;99.90;;;;;;5077384;28;20107;-75
2022/03/29 05:57:24;;;;;;;140.02;62.63;;;8.90;99.90;;;;;;5077507;28;20371;-75
2022/03/29 05:59:51;;;;;;;134.50;64.95;;;9.00;99.90;;;;;;5077106;28;20040;-74
2022/03/29 06:02:17;;;;;;;152.25;66.30;;;9.20;99.90;;;;;;5077240;28;20052;-73
2022/03/29 06:04:43;;;;;;;149.13;62.30;;;9.40;99.90;;;;;;5077540;28;20102;-74
2022/03/29 06:07:08;;;;;;;315.17;130.63;;;9.60;99.90;;;;;;5076627;28;20382;-75
2022/03/29 06:09:35;;;;;;;313.67;129.35;;;9.80;99.90;;;;;;5076701;28;20074;-73
2022/03/29 06:12:03;;;;;;;191.77;82.43;;;10.00;99.90;;;;;;5077073;28;20024;-75
2022/03/29 06:14:29;;;;;;;178.65;73.28;;;10.10;99.90;;;;;;5076732;28;20028;-74
2022/03/29 06:16:55;;;;;;;173.30;71.82;;;10.30;99.90;;;;;;5076796;28;20025;-77
2022/03/29 06:19:22;;;;;;;140.80;61.47;;;10.50;99.90;;;;;;5058709;28;20368;-74
2022/03/29 06:21:48;;;;;;;175.23;72.97;;;10.70;99.90;;;;;;5076874;28;20024;-75
2022/03/29 06:24:13;;;;;;;170.85;73.05;;;10.90;99.90;;;;;;5076474;28;20021;-75
2022/03/29 06:26:40;;;;;;;263.98;109.82;;;11.10;99.90;;;;;;5058568;28;20071;-74
2022/03/29 06:29:10;;;;;;;191.27;76.78;;;11.30;99.90;;;;;;5076680;28;20077;-76
2022/03/29 06:31:36;;;;;;;267.02;116.32;;;11.50;99.90;;;;;;5076559;28;20394;-73
2022/03/29 06:34:02;;;;;;;163.07;72.18;;;11.70;99.90;;;;;;5075857;28;20028;-75
2022/03/29 06:36:29;;;;;;;169.77;72.25;;;11.90;98.80;;;;;;5058629;28;20043;-76
2022/03/29 06:38:55;;;;;;;167.07;72.50;;;12.10;98.90;;;;;;5076167;28;20069;-75
2022/03/29 06:41:21;;;;;;;173.38;81.82;;;12.30;99.20;;;;;;5076264;28;20027;-76
2022/03/29 06:43:47;;;;;;;204.30;100.80;;;12.50;98.90;;;;;;5076328;28;20028;-75
2022/03/29 06:46:13;;;;;;;122.05;58.85;;;12.70;96.20;;;;;;5058847;28;20455;-75
2022/03/29 06:48:44;;;;;;;112.10;55.03;;;12.90;93.70;;;;;;5076143;28;20109;-75
2022/03/29 06:51:14;;;;;;;99.78;48.15;;;13.10;91.40;;;;;;5076024;28;20021;-74
2022/03/29 06:53:41;;;;;;;86.72;43.40;;;13.20;90.60;;;;;;5075974;28;20462;-75
2022/03/29 06:56:07;;;;;;;81.22;39.00;;;13.40;89.10;;;;;;5075994;28;20033;-74
2022/03/29 06:58:36;;;;;;;79.80;41.35;;;13.60;85.40;;;;;;5075494;28;20036;-75
2022/03/29 07:01:03;;;;;;;84.03;42.05;;;13.80;81.90;;;;;;5076181;28;20056;-76
2022/03/29 07:03:30;;;;;;;76.30;40.83;;;13.90;81.50;;;;;;5075905;28;20024;-75
2022/03/29 07:05:58;;;;;;;79.88;40.50;;;14.10;78.50;;;;;;5058279;28;20421;-76
2022/03/29 07:08:24;;;;;;;86.60;43.00;;;14.30;77.30;;;;;;5076171;28;20511;-75
2022/03/29 07:13:36;;;;;;;90.78;43.40;;;14.60;78.60;;;;;;5075638;28;20032;-76
2022/03/29 07:16:01;;;;;;;81.45;42.15;;;14.90;76.40;;;;;;5075360;28;20031;-76
2022/03/29 07:18:27;;;;;;;79.03;39.05;;;15.20;77.90;;;;;;5075798;28;20107;-75
2022/03/29 07:20:53;;;;;;;99.18;40.25;;;15.30;75.00;;;;;;5075790;28;20356;-75
2022/03/29 07:23:19;;;;;;;75.05;36.85;;;15.50;73.50;;;;;;5075285;28;20033;-76
2022/03/29 07:25:45;;;;;;;74.07;34.40;;;15.80;71.20;;;;;;5057634;28;20085;-75
2022/03/29 07:28:11;;;;;;;79.25;35.40;;;15.90;69.50;;;;;;5075723;28;20070;-74
2022/03/29 07:30:41;;;;;;;65.03;33.00;;;16.10;68.70;;;;;;5075221;28;20122;-74
2022/03/29 07:33:09;;;;;;;55.63;31.98;;;16.30;69.30;;;;;;5074345;28;20063;-74
2022/03/29 07:35:35;;;;;;;63.00;31.35;;;16.50;67.60;;;;;;5073991;28;20074;-75
2022/03/29 07:38:02;;;;;;;58.40;31.55;;;16.70;66.90;;;;;;5075423;28;20029;-75
2022/03/29 07:40:30;;;;;;;57.13;32.22;;;16.90;65.90;;;;;;5075029;28;20032;-75
2022/03/29 07:42:57;;;;;;;53.05;31.58;;;17.10;63.50;;;;;;5075338;28;20020;-74
2022/03/29 07:45:24;;;;;;;58.60;32.28;;;17.50;62.40;;;;;;5074900;28;20032;-76
2022/03/29 07:47:52;;;;;;;59.63;33.10;;;17.80;62.80;;;;;;5075084;28;20455;-74
2022/03/29 07:50:19;;;;;;;58.25;33.17;;;18.00;61.10;;;;;;5074318;28;20028;-74
2022/03/29 07:52:45;;;;;;;52.90;31.77;;;18.30;61.60;;;;;;5075196;28;20016;-74
2022/03/29 07:55:12;;;;;;;59.80;31.27;;;18.50;58.40;;;;;;5074924;28;20092;-73
2022/03/29 07:57:39;;;;;;;59.88;32.00;;;18.60;57.70;;;;;;5074892;28;20033;-75
2022/03/29 08:02:51;;;;;;;45.65;28.75;;;19.40;58.00;;;;;;5074681;28;20120;-73
2022/03/29 08:05:17;;;;;;;54.85;30.45;;;19.50;54.00;;;;;;5074964;28;20107;-74
2022/03/29 08:07:43;;;;;;;50.00;29.27;;;19.80;53.40;;;;;;5074723;28;20028;-73
2022/03/29 08:10:10;;;;;;;56.95;30.73;;;20.00;53.50;;;;;;5073836;28;20416;-74
2022/03/29 08:12:36;;;;;;;49.28;29.00;;;19.90;51.70;;;;;;5074797;28;20486;-74
2022/03/29 08:15:02;;;;;;;44.42;26.63;;;20.20;50.90;;;;;;5074259;28;20029;-73
2022/03/29 08:17:27;;;;;;;44.10;26.13;;;20.40;47.20;;;;;;5075095;28;20028;-73
2022/03/29 08:19:53;;;;;;;34.00;23.38;;;20.30;45.10;;;;;;5074394;28;20028;-73
2022/03/29 08:22:19;;;;;;;44.13;25.20;;;20.40;43.90;;;;;;5074542;28;20036;-73
2022/03/29 08:24:45;;;;;;;43.47;23.45;;;20.70;43.70;;;;;;5074609;28;20029;-74
2022/03/29 08:27:11;;;;;;;45.38;23.10;;;20.70;43.50;;;;;;5074277;28;20016;-74
2022/03/29 08:29:38;;;;;;;42.45;23.85;;;20.80;42.40;;;;;;5074288;28;20083;-73
2022/03/29 08:32:04;;;;;;;41.33;22.80;;;21.00;42.50;;;;;;5074676;28;20028;-74
2022/03/29 08:34:31;;;;;;;39.95;22.58;;;21.00;41.90;;;;;;5073753;28;20429;-75
2022/03/29 08:36:57;;;;;;;35.65;21.42;;;21.20;40.50;;;;;;5074222;28;20032;-76
2022/03/29 08:39:23;;;;;;;37.35;21.27;;;21.40;39.40;;;;;;5072881;28;20024;-73
2022/03/29 08:42:13;;;;;;;35.20;21.65;;;21.20;36.00;;;;;;5073695;28;20074;-74
2022/03/29 08:44:40;;;;;;;34.58;21.63;;;21.40;35.50;;;;;;5055630;28;20045;-74
2022/03/29 08:47:10;;;;;;;34.92;21.35;;;21.30;37.20;;;;;;5073014;28;20059;-74
2022/03/29 08:49:37;;;;;;;33.97;20.15;;;21.30;35.20;;;;;;5073644;28;20021;-75
2022/03/29 08:52:06;;;;;;;34.00;21.52;;;21.60;35.00;;;;;;5074083;28;20054;-73
2022/03/29 08:54:32;;;;;;;33.08;22.20;;;22.00;36.20;;;;;;5073673;28;20466;-73
2022/03/29 08:56:59;;;;;;;32.40;20.92;;;22.30;35.20;;;;;;5073739;28;20024;-73
2022/03/29 08:59:26;;;;;;;41.78;21.30;;;22.20;34.40;;;;;;5073680;28;20093;-74
2022/03/29 09:01:53;;;;;;;27.33;19.98;;;22.40;36.00;;;;;;5073440;28;20048;-74
2022/03/29 09:04:23;;;;;;;43.80;22.33;;;22.30;30.40;;;;;;5073690;28;20040;-75
2022/03/29 09:07:00;;;;;;;37.00;21.52;;;22.40;33.90;;;;;;5055641;28;20031;-75
2022/03/29 09:09:30;;;;;;;41.08;21.98;;;22.50;32.60;;;;;;5073344;28;20021;-74
2022/03/29 09:11:58;;;;;;;32.13;20.33;;;22.60;31.90;;;;;;5073507;28;20056;-74
2022/03/29 09:14:28;;;;;;;31.85;20.58;;;22.60;31.50;;;;;;5073625;28;20020;-74
2022/03/29 09:16:55;;;;;;;32.15;21.17;;;22.70;31.40;;;;;;5073458;28;20028;-74
2022/03/29 09:19:25;;;;;;;41.47;25.13;;;22.40;30.10;;;;;;5073343;28;20028;-75
2022/03/29 09:21:55;;;;;;;36.90;22.38;;;22.90;30.50;;;;;;5073258;28;20052;-75
2022/03/29 09:24:21;;;;;;;32.22;19.85;;;22.80;30.50;;;;;;5073680;28;20527;-74
2022/03/29 09:26:54;;;;;;;32.47;21.50;;;23.00;30.10;;;;;;5073174;28;20020;-75
2022/03/29 09:29:22;;;;;;;32.97;21.60;;;23.30;29.00;;;;;;5073150;28;20017;-74
2022/03/29 09:32:03;;;;;;;29.67;20.92;;;23.30;29.40;;;;;;5073732;28;20066;-75
2022/03/29 09:34:29;;;;;;;37.03;21.30;;;23.00;30.30;;;;;;5073668;28;20278;-74
2022/03/29 09:36:55;;;;;;;34.92;21.58;;;23.30;29.70;;;;;;5073227;28;20025;-75
2022/03/29 09:39:37;;;;;;;35.13;21.25;;;23.50;29.40;;;;;;5055241;28;20021;-75
2022/03/29 09:42:09;;;;;;;34.08;21.67;;;23.70;29.90;;;;;;5073328;28;20089;-73
2022/03/29 09:44:41;;;;;;;33.67;21.85;;;23.30;28.90;;;;;;5073251;28;20024;-76
2022/03/29 09:47:09;;;;;;;30.58;19.95;;;23.40;28.80;;;;;;5073367;28;20066;-74
2022/03/29 09:49:57;;;;;;;31.80;20.83;;;23.50;27.90;;;;;;5073095;28;20035;-75
2022/03/29 09:52:28;;;;;;;35.80;21.40;;;23.60;28.80;;;;;;5072994;28;20039;-74
2022/03/29 09:55:13;;;;;;;39.50;22.02;;;;;;;;;;5073384;28;20031;-74
2022/03/29 09:57:44;;;;;;;36.67;23.25;;;;;;;;;;5073566;28;20021;-73
2022/03/29 10:00:13;;;;;;;38.53;22.23;;;24.20;28.60;;;;;;5054923;28;20122;-74
2022/03/29 10:02:41;;;;;;;36.78;22.98;;;24.30;29.30;;;;;;5073407;28;20024;-74
2022/03/29 10:05:10;;;;;;;32.78;22.52;;;24.20;28.90;;;;;;5073081;28;20480;-74
2022/03/29 10:07:43;;;;;;;34.38;23.25;;;24.20;29.20;;;;;;5073213;28;20052;-75
2022/03/29 10:10:10;;;;;;;37.33;22.35;;;;;;;;;;5073347;28;20024;-75
2022/03/29 10:12:36;;;;;;;31.52;22.48;;;;;;;;;;5073357;28;20340;-75
2022/03/29 10:15:03;;;;;;;33.75;22.85;;;;;;;;;;5073022;28;20064;-75
2022/03/29 10:17:30;;;;;;;31.95;22.92;;;24.40;27.10;;;;;;5072700;28;20037;-73
2022/03/29 10:19:56;;;;;;;43.47;23.58;;;;;;;;;;5072792;28;20099;-77
2022/03/29 10:22:22;;;;;;;34.55;23.33;;;;;;;;;;5073134;28;20013;-73
2022/03/29 10:24:49;;;;;;;40.38;24.48;;;;;;;;;;5054844;28;20028;-75
2022/03/29 10:27:17;;;;;;;35.17;23.58;;;24.90;26.30;;;;;;5072992;28;20029;-75
2022/03/29 10:29:44;;;;;;;35.85;22.88;;;;;;;;;;5073024;28;20048;-75
2022/03/29 10:32:10;;;;;;;37.58;23.75;;;;;;;;;;5055423;28;20024;-72
2022/03/29 10:34:40;;;;;;;39.92;24.48;;;;;;;;;;5076259;28;20439;-73
2022/03/29 10:37:13;;;;;;;44.00;23.95;;;;;;;;;;5058720;28;20363;-72
2022/03/29 10:39:49;;;;;;;39.83;23.70;;;;;;;;;;5076337;28;20040;-73
2022/03/29 10:42:36;;;;;;;42.05;31.50;;;;;;;;;;5076369;28;20021;-74
2022/03/29 10:45:15;;;;;;;35.33;23.65;;;;;;;;;;5076419;28;20025;-76
2022/03/29 10:47:42;;;;;;;41.55;24.38;;;;;;;;;;5076251;28;20028;-76
2022/03/29 10:50:10;;;;;;;33.67;23.67;;;;;;;;;;5076273;28;20377;-78
2022/03/29 10:52:43;;;;;;;33.40;22.65;;;;;;;;;;5076221;28;20025;-74
2022/03/29 10:55:21;;;;;;;35.72;23.25;;;;;;;;;;5076300;28;20483;-75
2022/03/29 10:58:06;;;;;;;39.13;23.67;;;;;;;;;;5076255;28;20086;-76
2022/03/29 11:00:33;;;;;;;30.92;23.95;;;;;;;;;;5076440;28;20024;-75
2022/03/29 11:03:09;;;;;;;36.28;23.35;;;;;;;;;;5075823;28;20028;-72
2022/03/29 11:05:54;;;;;;;40.17;24.45;;;;;;;;;;5075842;28;20379;-71
2022/03/29 11:08:21;;;;;;;46.03;23.85;;;;;;;;;;5075582;28;20530;-73
2022/03/29 11:10:47;;;;;;;37.47;24.58;;;;;;;;;;5075903;28;20025;-74
2022/03/29 11:13:43;;;;;;;38.45;24.30;;;;;;;;;;5075603;28;20021;-74
2022/03/29 11:16:29;;;;;;;32.78;24.35;;;;;;;;;;5058743;28;20044;-72
2022/03/29 11:18:56;;;;;;;33.55;23.40;;;;;;;;;;5075585;28;20060;-74
2022/03/29 11:21:32;;;;;;;33.67;24.15;;;;;;;;;;5075597;28;20021;-75
2022/03/29 11:24:00;;;;;;;39.80;24.58;;;;;;;;;;5075418;28;20426;-78
2022/03/29 11:26:27;;;;;;;38.35;24.42;;;;;;;;;;5075334;28;20016;-75
2022/03/29 11:28:54;;;;;;;35.33;24.30;;;;;;;;;;5075259;28;20028;-74
2022/03/29 11:31:21;;;;;;;38.03;24.10;;;;;;;;;;5075135;28;20090;-74
2022/03/29 11:33:52;;;;;;;40.28;24.00;;;;;;;;;;5075312;28;20467;-78
2022/03/29 11:36:19;;;;;;;38.17;25.48;;;;;;;;;;5075390;28;20028;-73
2022/03/29 11:38:45;;;;;;;36.13;23.27;;;;;;;;;;5075215;28;20107;-76
2022/03/29 11:41:22;;;;;;;38.42;23.70;;;;;;;;;;5075460;28;20056;-76
2022/03/29 11:43:52;;;;;;;40.67;23.90;;;;;;;;;;5074303;28;20055;-76
2022/03/29 11:46:18;;;;;;;35.25;23.38;;;;;;;;;;5075113;28;20020;-76
2022/03/29 11:48:48;;;;;;;36.35;24.75;;;;;;;;;;5075313;28;20061;-75
2022/03/29 11:51:15;;;;;;;34.70;23.77;;;;;;;;;;5057406;28;20344;-75
2022/03/29 11:53:42;;;;;;;32.75;23.38;;;;;;;;;;5074824;28;20348;-74
2022/03/29 11:56:11;;;;;;;29.70;22.10;;;;;;;;;;5074580;28;20035;-74
2022/03/29 11:58:42;;;;;;;38.92;23.67;;;;;;;;;;5074720;28;20530;-75
2022/03/29 12:01:28;;;;;;;35.60;21.92;;;;;;;;;;5075342;28;20082;-74
2022/03/29 12:04:05;;;;;;;33.10;22.65;;;;;;;;;;5074959;28;20027;-75
2022/03/29 12:06:32;;;;;;;35.30;22.77;;;;;;;;;;5080212;28;20027;-75
2022/03/29 12:08:58;;;;;;;35.83;23.17;;;;;;;;;;5083291;28;20041;-74
2022/03/29 12:11:24;;;;;;;35.20;23.75;;;;;;;;;;5083632;28;20024;-74
2022/03/29 12:14:03;;;;;;;35.55;23.55;;;;;;;;;;5067016;28;20403;-75
2022/03/29 12:16:29;;;;;;;36.50;23.33;;;;;;;;;;5066843;28;20056;-77
2022/03/29 12:18:56;;;;;;;32.88;22.35;;;;;;;;;;5074479;28;20021;-75
2022/03/29 12:21:24;;;;;;;35.38;23.50;;;;;;;;;;5074044;28;20374;-75
2022/03/29 12:23:58;;;;;;;36.88;22.77;;;;;;;;;;5076804;28;20050;-76
2022/03/29 12:26:24;;;;;;;34.50;22.83;;;;;;;;;;5084532;28;20024;-76
2022/03/29 12:28:50;;;;;;;40.03;23.17;;;;;;;;;;5088561;28;20028;-75
2022/03/29 12:31:17;;;;;;;36.95;24.00;;;;;;;;;;5094689;28;20047;-76
2022/03/29 12:33:44;;;;;;;33.15;23.00;;;;;;;;;;5094589;28;20016;-75
2022/03/29 12:36:15;;;;;;;39.08;23.85;;;;;;;;;;5094441;28;20032;-73
2022/03/29 12:38:41;;;;;;;36.35;21.42;;;;;;;;;;5094520;28;20026;-74
2022/03/29 12:41:08;;;;;;;33.47;22.92;;;;;;;;;;5094471;28;20017;-76
2022/03/29 12:43:35;;;;;;;36.65;21.83;;;;;;;;;;5094225;28;20375;-75
2022/03/29 12:46:02;;;;;;;39.25;22.38;;;;;;;;;;5076082;28;20155;-73
2022/03/29 12:48:29;;;;;;;32.63;22.48;;;;;;;;;;5094434;28;20020;-76
2022/03/29 12:50:55;;;;;;;34.45;22.33;;;;;;;;;;5094369;28;20025;-74
2022/03/29 12:53:21;;;;;;;37.00;22.88;;;;;;;;;;5094424;28;20413;-75
2022/03/29 12:55:57;;;;;;;34.15;23.98;;;;;;;;;;5093492;28;20508;-74
2022/03/29 12:58:35;;;;;;;37.20;23.52;;;;;;;;;;5076133;28;20063;-75
2022/03/29 13:01:01;;;;;;;37.83;23.60;;;;;;;;;;5093962;28;20478;-77
2022/03/29 13:03:28;;;;;;;34.45;22.23;;;;;;;;;;5093791;28;20103;-76
2022/03/29 13:05:55;;;;;;;35.70;22.33;;;;;;;;;;5093935;28;20020;-76
2022/03/29 13:08:21;;;;;;;39.28;23.27;;;;;;;;;;5094075;28;20020;-73